EST,Max TemperatureF,Mean TemperatureF,Min TemperatureF,Max Dew PointF,MeanDew PointF,Min DewpointF,Max Humidity, Mean Humidity, Min Humidity, Max Sea Level PressureIn, Mean Sea Level PressureIn, Min Sea Level PressureIn, Max VisibilityMiles, Mean VisibilityMiles, Min VisibilityMiles, Max Wind SpeedMPH, Mean Wind SpeedMPH, Max Gust SpeedMPH,PrecipitationIn, CloudCover, Events, WindDirDegrees
2012-12-1,66,48,31,47,39,31,99,79,41,30.45,30.39,30.35,10,9,0,7,0,,0.00,0,Fog,206
2012-12-2,68,52,37,52,45,36,97,84,52,30.43,30.36,30.29,10,10,7,12,2,,0.00,2,,201
2012-12-3,73,56,39,55,47,39,100,82,47,30.35,30.31,30.27,10,8,0,8,1,,0.00,2,Fog,217
2012-12-4,73,56,40,56,48,39,99,82,45,30.37,30.29,30.24,10,10,2,15,2,18,0.00,3,,210
2012-12-5,66,54,41,57,51,35,100,85,54,30.24,30.21,30.17,10,10,7,10,3,16,0.00,6,Rain,290
2012-12-6,51,44,37,35,33,30,89,59,47,30.35,30.28,30.24,10,10,7,10,4,,0.00,6,,54
2012-12-7,48,46,45,49,42,33,100,82,57,30.25,30.14,30.06,10,8,0,7,3,,0.05,8,Fog-Rain,35
2012-12-8,66,56,46,54,50,46,100,90,64,30.10,30.06,30.02,10,6,0,9,1,,0.00,4,Fog,215
2012-12-9,68,57,46,62,56,46,100,93,77,30.17,30.11,30.03,10,7,0,9,1,,0.02,7,Fog-Rain,201
2012-12-10,69,62,56,61,58,57,100,89,67,30.02,29.85,29.75,10,7,0,15,6,22,0.03,6,Fog-Rain,213
2012-12-11,62,53,44,59,45,30,100,71,52,30.19,29.98,29.77,10,9,0,10,6,16,0.00,4,Fog,24
2012-12-12,46,42,39,39,34,30,93,72,57,30.35,30.28,30.18,10,10,10,16,8,21,0.10,7,Rain,33
2012-12-13,51,40,27,35,30,26,96,69,43,30.43,30.37,30.30,10,10,7,16,9,26,0.01,4,Rain,32
2012-12-14,57,40,23,33,27,22,96,73,31,30.42,30.35,30.27,10,10,7,5,0,,0.00,0,,20
2012-12-15,58,44,30,41,32,22,94,65,26,30.31,30.23,30.12,10,10,10,8,1,,0.00,3,,176
2012-12-16,55,51,47,54,50,41,100,95,68,30.12,30.04,29.95,10,6,2,8,2,,0.21,8,Rain-Thunderstorm,198
2012-12-17,57,54,52,56,54,53,100,97,88,29.94,29.83,29.72,10,8,1,12,4,22,0.20,8,Rain-Thunderstorm,202
2012-12-18,59,46,33,54,41,28,95,68,34,29.97,29.82,29.71,10,10,10,14,7,22,0.00,4,,259
2012-12-19,66,47,28,42,34,27,98,74,33,30.15,30.06,29.96,10,10,10,7,1,,0.00,0,,257
2012-12-20,60,46,33,60,43,33,100,85,66,30.16,29.93,29.58,10,10,3,22,5,33,0.25,4,Rain,134
2012-12-21,48,42,37,43,27,21,81,57,40,29.91,29.76,29.61,10,10,10,18,10,32,0.18,5,,265
2012-12-22,52,38,24,25,20,15,90,56,23,30.15,30.07,29.91,10,10,10,12,3,21,0.00,0,,278
2012-12-23,53,36,20,41,25,18,98,68,27,30.19,30.13,30.07,10,10,10,9,1,,0.02,2,Rain,206
2012-12-24,48,45,42,48,41,35,100,85,63,30.07,30.00,29.93,10,9,0,14,3,,0.04,8,Fog-Rain,200
2012-12-25,57,50,44,48,45,43,100,86,59,30.14,30.06,29.97,10,9,0,8,1,,0.01,5,Fog-Rain,49
2012-12-26,48,43,37,47,43,37,99,95,83,30.05,29.72,29.49,10,9,2,17,8,26,0.91,7,Rain-Thunderstorm,51
2012-12-27,50,40,31,35,31,27,94,73,48,30.12,29.96,29.73,10,10,10,9,4,,0.00,0,,282
2012-12-28,43,34,25,33,28,25,98,79,54,30.22,30.13,30.01,10,10,10,5,1,,0.00,1,,44
2012-12-29,51,44,36,42,35,22,100,78,52,30.05,29.86,29.74,10,8,1,12,3,22,0.24,7,Rain,301
2012-12-30,46,35,24,26,22,18,90,62,32,30.44,30.31,30.06,10,10,10,10,4,17,0.00,0,,309
2012-12-31,54,38,22,32,26,22,96,65,30,30.42,30.31,30.16,10,10,10,20,3,26,0.00,2,,218